createdAt,value
2022-08-18T00:01:45.486Z,20.10
2022-08-18T00:04:49.842Z,20.00
2022-08-18T00:07:55.087Z,20.00
2022-08-18T00:10:58.502Z,19.90
2022-08-18T00:14:00.393Z,19.70
2022-08-18T00:17:02.196Z,19.70
2022-08-18T00:20:10.593Z,19.70
2022-08-18T00:23:13.444Z,19.70
2022-08-18T00:26:15.859Z,19.80
2022-08-18T00:29:17.652Z,19.80
2022-08-18T00:32:42.093Z,19.80
2022-08-18T00:35:44.116Z,19.80
2022-08-18T00:38:47.704Z,19.70
2022-08-18T00:41:49.549Z,19.80
2022-08-18T00:44:51.631Z,19.70
2022-08-18T00:47:53.845Z,19.60
2022-08-18T00:50:59.302Z,19.60
2022-08-18T00:54:20.989Z,19.50
2022-08-18T00:57:24.970Z,19.60
2022-08-18T01:00:27.750Z,19.60
2022-08-18T01:03:33.771Z,19.60
2022-08-18T01:06:35.515Z,19.60
2022-08-18T01:09:37.376Z,19.50
2022-08-18T01:12:44.877Z,19.70
2022-08-18T01:15:48.254Z,19.70
2022-08-18T01:19:25.527Z,19.70
2022-08-18T01:22:44.600Z,19.70
2022-08-18T01:25:59.929Z,19.60
2022-08-18T01:29:09.769Z,19.60
2022-08-18T01:32:14.359Z,19.50
2022-08-18T01:35:17.879Z,19.50
2022-08-18T01:38:22.826Z,19.50
2022-08-18T01:41:30.115Z,19.60
2022-08-18T01:44:33.833Z,19.60
2022-08-18T01:47:47.942Z,19.50
2022-08-18T01:50:50.463Z,19.40
2022-08-18T01:53:52.231Z,19.50
2022-08-18T01:56:54.924Z,19.70
2022-08-18T02:00:00.912Z,19.60
2022-08-18T02:03:08.702Z,19.60
2022-08-18T02:06:13.356Z,19.50
2022-08-18T02:09:16.998Z,19.60
2022-08-18T02:12:26.056Z,19.60
2022-08-18T02:15:28.211Z,19.60
2022-08-18T02:18:47.922Z,19.70
2022-08-18T02:21:52.890Z,19.80
2022-08-18T02:24:57.497Z,19.80
2022-08-18T02:28:03.778Z,19.80
2022-08-18T02:31:11.507Z,19.90
2022-08-18T02:34:13.280Z,19.80
2022-08-18T02:37:15.706Z,19.80
2022-08-18T02:40:19.101Z,19.80
2022-08-18T02:43:20.963Z,19.90
2022-08-18T02:46:23.380Z,19.80
2022-08-18T02:49:28.560Z,19.90
2022-08-18T03:00:13.101Z,19.90
2022-08-18T03:03:15.224Z,19.90
2022-08-18T03:06:18.684Z,19.90
2022-08-18T03:09:20.766Z,19.90
2022-08-18T03:12:22.632Z,19.80
2022-08-18T03:15:24.416Z,19.80
2022-08-18T03:18:28.469Z,19.70
2022-08-18T03:21:35.829Z,19.70
2022-08-18T03:24:37.885Z,19.60
2022-08-18T03:27:40.268Z,19.70
2022-08-18T03:30:43.315Z,19.70
2022-08-18T03:33:46.547Z,19.80
2022-08-18T03:36:50.849Z,19.80
2022-08-18T03:39:53.001Z,19.80
2022-08-18T03:42:56.763Z,19.70
2022-08-18T03:46:04.006Z,19.80
2022-08-18T03:49:06.262Z,19.70
2022-08-18T03:52:09.829Z,19.70
2022-08-18T03:55:12.323Z,19.70
2022-08-18T03:58:15.173Z,19.70
2022-08-18T04:01:26.271Z,19.60
2022-08-18T04:04:29.551Z,19.50
2022-08-18T04:07:31.684Z,19.60
2022-08-18T04:10:34.096Z,19.60
2022-08-18T04:13:37.336Z,19.60
2022-08-18T04:16:39.667Z,19.60
2022-08-18T04:19:44.763Z,19.60
2022-08-18T04:22:46.606Z,19.70
2022-08-18T04:25:59.037Z,19.60
2022-08-18T04:29:01.910Z,19.60
2022-08-18T04:32:04.963Z,19.60
2022-08-18T04:35:12.319Z,19.50
2022-08-18T04:38:15.773Z,19.50
2022-08-18T04:41:17.803Z,19.40
2022-08-18T04:44:21.621Z,19.40
2022-08-18T04:47:23.518Z,19.40
2022-08-18T04:50:25.235Z,19.50
2022-08-18T04:53:45.479Z,19.50
2022-08-18T04:56:50.953Z,19.50
2022-08-18T04:59:53.403Z,19.50
2022-08-18T05:02:57.158Z,19.50
2022-08-18T05:05:59.781Z,19.50
2022-08-18T05:09:05.661Z,19.40
2022-08-18T05:12:17.825Z,19.50
2022-08-18T05:15:22.112Z,19.40
2022-08-18T05:18:26.635Z,19.40
2022-08-18T05:21:28.580Z,19.40
2022-08-18T05:24:37.516Z,19.40
2022-08-18T05:27:43.047Z,19.50
2022-08-18T05:30:45.055Z,19.40
2022-08-18T05:33:47.613Z,19.40
2022-08-18T05:36:50.395Z,19.40
2022-08-18T05:40:08.870Z,19.40
2022-08-18T05:43:15.271Z,19.40
2022-08-18T05:46:17.705Z,19.50
2022-08-18T05:49:26.361Z,19.40
2022-08-18T05:52:46.775Z,19.40
2022-08-18T05:56:21.448Z,19.40
2022-08-18T05:59:31.419Z,19.40
2022-08-18T06:02:48.358Z,19.40
2022-08-18T06:05:57.972Z,19.40
2022-08-18T06:09:39.962Z,19.40
2022-08-18T06:12:47.237Z,19.40
2022-08-18T06:15:53.185Z,19.40
2022-08-18T06:19:02.517Z,19.30
2022-08-18T06:22:31.430Z,19.30
2022-08-18T06:25:58.137Z,19.40
2022-08-18T06:29:40.299Z,19.50
2022-08-18T06:32:45.176Z,19.50
2022-08-18T06:35:55.195Z,19.40
2022-08-18T06:39:33.115Z,19.40
2022-08-18T06:42:39.949Z,19.40
2022-08-18T06:45:45.530Z,19.50
2022-08-18T06:48:54.562Z,19.50
2022-08-18T06:51:56.497Z,19.50
2022-08-18T06:55:01.552Z,19.60
2022-08-18T06:58:13.600Z,19.70
2022-08-18T07:01:18.070Z,19.70
2022-08-18T07:04:40.992Z,19.60
2022-08-18T07:07:43.647Z,19.70
2022-08-18T07:10:51.553Z,19.70
2022-08-18T07:14:15.075Z,19.70
2022-08-18T07:17:43.253Z,19.70
2022-08-18T07:20:56.185Z,19.70
2022-08-18T07:24:24.400Z,19.70
2022-08-18T07:27:49.438Z,19.60
2022-08-18T07:31:15.647Z,19.60
2022-08-18T07:34:15.396Z,19.60
2022-08-18T07:37:30.276Z,19.60
2022-08-18T07:40:48.219Z,19.70
2022-08-18T07:43:52.884Z,19.70
2022-08-18T07:47:03.650Z,19.80
2022-08-18T07:50:26.999Z,19.80
2022-08-18T07:53:57.974Z,19.90
2022-08-18T07:57:29.571Z,19.90
2022-08-18T08:01:05.508Z,19.80
2022-08-18T08:04:30.661Z,19.90
2022-08-18T08:07:44.393Z,19.80
2022-08-18T08:11:06.155Z,19.80
2022-08-18T08:14:38.605Z,19.90
2022-08-18T08:17:47.310Z,19.80
2022-08-18T08:20:54.811Z,19.90
2022-08-18T08:24:41.986Z,19.80
2022-08-18T08:28:16.696Z,19.80
2022-08-18T08:31:46.932Z,19.90
2022-08-18T08:34:59.349Z,20.00
2022-08-18T08:38:36.466Z,20.00
2022-08-18T08:41:41.422Z,19.90
2022-08-18T08:44:59.165Z,20.00
2022-08-18T08:48:09.915Z,20.00
2022-08-18T08:51:30.109Z,20.10
2022-08-18T08:54:45.084Z,20.10
2022-08-18T08:57:56.042Z,20.10
2022-08-18T09:00:58.548Z,20.10
2022-08-18T09:04:24.097Z,20.20
2022-08-18T09:07:45.399Z,20.20
2022-08-18T09:11:10.773Z,20.20
2022-08-18T09:14:41.711Z,20.30
2022-08-18T09:18:20.963Z,20.30
2022-08-18T09:21:36.467Z,20.40
2022-08-18T09:24:53.147Z,20.50
2022-08-18T09:28:12.823Z,20.50
2022-08-18T09:31:19.717Z,20.50
2022-08-18T09:34:38.410Z,20.60
2022-08-18T09:38:12.303Z,20.70
2022-08-18T09:41:32.366Z,20.70
2022-08-18T09:44:46.591Z,20.80
2022-08-18T09:47:54.113Z,20.80
2022-08-18T09:51:19.229Z,20.80
2022-08-18T09:54:28.121Z,20.90
2022-08-18T09:57:43.902Z,20.90
2022-08-18T10:00:45.942Z,20.90
2022-08-18T10:04:21.738Z,20.90
2022-08-18T10:07:41.742Z,21.10
2022-08-18T10:11:26.484Z,21.10
2022-08-18T10:14:34.342Z,21.20
2022-08-18T10:18:14.679Z,21.30
2022-08-18T10:21:27.951Z,21.30
2022-08-18T10:24:58.835Z,21.40
2022-08-18T10:28:05.914Z,21.50
2022-08-18T10:34:51.642Z,21.60
2022-08-18T10:37:55.536Z,21.80
2022-08-18T10:41:09.947Z,21.90
2022-08-18T10:44:29.089Z,21.80
2022-08-18T10:47:34.174Z,21.90
2022-08-18T10:51:02.081Z,22.00
2022-08-18T10:54:22.469Z,22.20
2022-08-18T10:57:43.783Z,22.30
2022-08-18T11:01:02.270Z,22.50
2022-08-18T11:04:43.178Z,22.40
2022-08-18T11:07:52.084Z,22.50
2022-08-18T11:11:37.658Z,22.50
2022-08-18T11:14:52.031Z,22.60
2022-08-18T11:18:10.715Z,22.60
2022-08-18T11:21:42.001Z,22.70
2022-08-18T11:24:45.316Z,22.60
2022-08-18T11:27:51.590Z,22.70
2022-08-18T11:30:56.568Z,22.70
2022-08-18T11:33:58.366Z,22.70
2022-08-18T11:37:03.653Z,22.70
2022-08-18T11:41:08.705Z,22.80
2022-08-18T11:43:50.401Z,22.80
2022-08-18T11:47:07.665Z,22.80
2022-08-18T11:50:13.155Z,22.80
2022-08-18T11:57:36.631Z,23.00
2022-08-18T12:00:53.562Z,23.10
2022-08-18T12:03:57.422Z,23.10
2022-08-18T12:07:20.384Z,23.10
2022-08-18T12:13:42.582Z,23.10
2022-08-18T12:16:47.985Z,23.10
2022-08-18T12:19:52.946Z,23.10
2022-08-18T12:22:57.142Z,23.10
2022-08-18T12:25:59.001Z,23.10
2022-08-18T12:29:01.514Z,23.10
2022-08-18T12:32:08.352Z,23.20
2022-08-18T12:35:12.011Z,23.20
2022-08-18T12:38:14.567Z,23.20
2022-08-18T12:44:41.586Z,23.30
2022-08-18T12:47:46.081Z,23.30
2022-08-18T12:54:10.349Z,23.40
2022-08-18T12:57:52.110Z,23.40
2022-08-18T13:00:55.731Z,23.40
2022-08-18T13:04:13.046Z,23.50
2022-08-18T13:07:15.970Z,23.60
2022-08-18T13:10:35.455Z,23.70
2022-08-18T13:13:44.708Z,23.70
2022-08-18T13:16:53.730Z,23.70
2022-08-18T13:19:56.826Z,23.70
2022-08-18T13:23:02.945Z,23.60
2022-08-18T13:26:19.604Z,23.60
2022-08-18T13:29:21.372Z,23.60
2022-08-18T13:32:24.023Z,23.50
2022-08-18T13:35:26.705Z,23.50
2022-08-18T13:38:35.706Z,23.40
2022-08-18T13:41:38.784Z,23.50
2022-08-18T13:44:42.153Z,23.60
2022-08-18T13:47:58.388Z,23.60
2022-08-18T13:51:02.090Z,23.60
2022-08-18T13:54:28.854Z,23.70
2022-08-18T14:01:39.458Z,23.80
2022-08-18T14:04:27.970Z,23.80
2022-08-18T14:07:31.958Z,23.90
2022-08-18T14:10:37.755Z,23.90
2022-08-18T14:13:43.562Z,24.00
2022-08-18T14:16:45.661Z,24.10
2022-08-18T14:20:06.056Z,24.10
2022-08-18T14:26:42.859Z,24.10
2022-08-18T14:29:48.784Z,24.00
2022-08-18T14:32:55.214Z,24.00
2022-08-18T14:39:16.547Z,24.00
2022-08-18T14:42:19.168Z,24.00
2022-08-18T14:45:35.657Z,24.00
2022-08-18T14:51:53.637Z,24.10
2022-08-18T14:54:55.479Z,24.10
2022-08-18T14:58:10.667Z,24.20
2022-08-18T15:01:13.252Z,24.20
2022-08-18T15:04:53.093Z,24.30
2022-08-18T15:15:05.697Z,24.30
2022-08-18T15:18:14.798Z,24.30
2022-08-18T15:21:50.021Z,24.30
2022-08-18T15:25:29.378Z,24.40
2022-08-18T15:28:34.268Z,24.50
2022-08-18T15:31:55.453Z,24.50
2022-08-18T15:35:52.041Z,24.50
2022-08-18T15:38:53.837Z,24.50
2022-08-18T15:41:58.069Z,24.50
2022-08-18T15:45:11.481Z,24.50
2022-08-18T15:48:15.599Z,24.40
2022-08-18T15:51:17.805Z,24.50
2022-08-18T15:54:22.177Z,24.40
2022-08-18T15:57:35.206Z,24.50
2022-08-18T16:00:45.550Z,24.50
2022-08-18T16:03:53.067Z,24.50
2022-08-18T16:06:55.180Z,24.50
2022-08-18T16:09:57.406Z,24.50
2022-08-18T16:13:01.938Z,24.50
2022-08-18T16:16:16.176Z,24.60
2022-08-18T16:19:31.691Z,24.70
2022-08-18T16:22:34.588Z,24.70
2022-08-18T16:25:43.413Z,24.70
2022-08-18T16:28:46.776Z,24.70
2022-08-18T16:31:50.242Z,24.70
2022-08-18T16:34:52.592Z,24.70
2022-08-18T16:37:54.713Z,24.70
2022-08-18T16:40:57.785Z,24.70
2022-08-18T16:43:59.687Z,24.70
2022-08-18T16:47:04.387Z,24.70
2022-08-18T16:50:25.415Z,24.70
2022-08-18T16:53:27.867Z,24.70
2022-08-18T17:01:18.689Z,24.60
2022-08-18T17:04:25.056Z,24.70
2022-08-18T17:07:34.925Z,24.70
2022-08-18T17:10:40.064Z,24.70
2022-08-18T17:13:43.401Z,24.70
2022-08-18T17:19:58.179Z,24.70
2022-08-18T17:23:01.305Z,24.70
2022-08-18T17:26:03.983Z,24.70
2022-08-18T17:29:25.992Z,24.70
2022-08-18T17:32:58.020Z,24.70
2022-08-18T17:36:11.604Z,24.70
2022-08-18T17:39:16.220Z,24.70
2022-08-18T17:42:40.145Z,24.70
2022-08-18T17:45:45.614Z,24.70
2022-08-18T17:48:57.391Z,24.80
2022-08-18T17:52:00.121Z,24.80
2022-08-18T17:55:14.609Z,24.80
2022-08-18T17:58:26.535Z,24.70
2022-08-18T18:01:28.712Z,24.70
2022-08-18T18:04:30.802Z,24.70
2022-08-18T18:07:54.858Z,24.70
2022-08-18T18:11:11.236Z,24.70
2022-08-18T18:14:34.786Z,24.70
2022-08-18T18:17:40.136Z,24.70
2022-08-18T18:20:45.166Z,24.70
2022-08-18T18:24:15.183Z,24.70
2022-08-18T18:27:50.610Z,24.60
2022-08-18T18:30:52.500Z,24.60
2022-08-18T18:34:02.819Z,24.60
2022-08-18T18:37:17.812Z,24.50
2022-08-18T18:40:31.826Z,24.50
2022-08-18T18:43:33.511Z,24.50
2022-08-18T18:47:01.665Z,24.50
2022-08-18T18:50:17.162Z,24.40
2022-08-18T18:53:24.792Z,24.40
2022-08-18T18:56:38.164Z,24.30
2022-08-18T18:59:51.324Z,24.30
2022-08-18T19:03:07.445Z,24.20
2022-08-18T19:06:35.186Z,24.20
2022-08-18T19:09:50.889Z,24.20
2022-08-18T19:13:12.864Z,24.10
2022-08-18T19:16:45.237Z,24.10
2022-08-18T19:23:45.380Z,24.00
2022-08-18T19:27:13.869Z,24.00
2022-08-18T19:33:56.693Z,23.90
2022-08-18T19:37:50.701Z,23.80
2022-08-18T19:41:19.929Z,23.80
2022-08-18T19:45:19.342Z,23.70
2022-08-18T19:48:59.703Z,23.70
2022-08-18T19:52:45.342Z,23.70
2022-08-18T19:55:55.031Z,23.60
2022-08-18T19:59:18.452Z,23.60
2022-08-18T20:06:17.821Z,23.50
2022-08-18T20:13:19.587Z,23.40
2022-08-18T20:16:28.663Z,23.40
2022-08-18T20:20:12.985Z,23.30
2022-08-18T20:23:37.616Z,23.20
2022-08-18T20:26:39.374Z,23.20
2022-08-18T20:29:46.358Z,23.10
2022-08-18T20:33:18.242Z,23.10
2022-08-18T20:36:28.533Z,23.00
2022-08-18T20:39:45.750Z,23.00
2022-08-18T20:42:55.934Z,22.90
2022-08-18T20:46:26.277Z,22.90
2022-08-18T20:50:03.307Z,22.90
2022-08-18T20:53:39.805Z,22.80
2022-08-18T20:56:50.837Z,22.80
2022-08-18T21:00:05.083Z,22.80
2022-08-18T21:03:12.467Z,22.80
2022-08-18T21:06:16.082Z,22.70
2022-08-18T21:09:18.666Z,22.70
2022-08-18T21:12:27.819Z,22.60
2022-08-18T21:15:35.573Z,22.60
2022-08-18T21:18:37.726Z,22.50
2022-08-18T21:22:01.308Z,22.50
2022-08-18T21:25:03.224Z,22.30
2022-08-18T21:28:06.931Z,22.30
2022-08-18T21:31:43.076Z,22.30
2022-08-18T21:34:47.217Z,22.20
2022-08-18T21:38:07.815Z,22.10
2022-08-18T21:41:13.702Z,22.20
2022-08-18T21:44:21.717Z,22.10
2022-08-18T21:47:34.394Z,22.10
2022-08-18T21:50:36.633Z,22.10
2022-08-18T21:53:38.470Z,22.10
2022-08-18T21:56:40.431Z,22.10
2022-08-18T22:00:25.720Z,22.10
2022-08-18T22:03:28.644Z,22.00
2022-08-18T22:06:33.620Z,22.00
2022-08-18T22:10:25.565Z,22.00
2022-08-18T22:13:58.640Z,21.90
2022-08-18T22:17:30.160Z,21.90
2022-08-18T22:20:53.851Z,21.90
2022-08-18T22:24:17.551Z,21.90
2022-08-18T22:27:21.555Z,21.80
2022-08-18T22:30:29.643Z,21.80
2022-08-18T22:33:31.645Z,21.80
2022-08-18T22:36:45.936Z,21.70
2022-08-18T22:39:55.729Z,21.70
2022-08-18T22:42:58.183Z,21.70
2022-08-18T22:46:01.933Z,21.60
2022-08-18T22:49:04.643Z,21.60
2022-08-18T22:52:22.429Z,21.50
2022-08-18T22:55:31.941Z,21.50
2022-08-18T22:58:33.920Z,21.50
2022-08-18T23:01:36.994Z,21.50
2022-08-18T23:04:38.802Z,21.40
2022-08-18T23:07:52.440Z,21.40
2022-08-18T23:10:54.138Z,21.50
2022-08-18T23:13:56.782Z,21.50
2022-08-18T23:16:59.555Z,21.50
2022-08-18T23:20:01.373Z,21.40
2022-08-18T23:23:03.733Z,21.40
2022-08-18T23:26:05.833Z,21.40
2022-08-18T23:29:11.396Z,21.30
2022-08-18T23:32:13.258Z,21.20
2022-08-18T23:35:15.759Z,21.10
2022-08-18T23:38:17.970Z,21.20
2022-08-18T23:41:21.689Z,21.10
2022-08-18T23:44:27.551Z,21.00
2022-08-18T23:47:29.986Z,21.00
2022-08-18T23:50:32.845Z,21.00
2022-08-18T23:53:34.778Z,20.90
2022-08-18T23:56:37.808Z,20.90
2022-08-18T23:59:39.869Z,20.80
